sensor_id;sensor_type;location;lat;lon;timestamp;P1;durP1;ratioP1;P2;durP2;ratioP2
38853;SDS011;24606;51.992;4.198;2023-04-03T00:00:34;6.40;;;2.95;;
38853;SDS011;24606;51.992;4.198;2023-04-03T00:05:36;5.00;;;2.95;;
38853;SDS011;24606;51.992;4.198;2023-04-03T00:10:39;4.57;;;2.75;;
38853;SDS011;24606;51.992;4.198;2023-04-03T00:15:42;3.67;;;2.08;;
38853;SDS011;24606;51.992;4.198;2023-04-03T00:20:44;4.00;;;1.98;;
38853;SDS011;24606;51.992;4.198;2023-04-03T00:25:47;4.07;;;2.03;;
38853;SDS011;24606;51.992;4.198;2023-04-03T00:30:49;8.63;;;2.75;;
38853;SDS011;24606;51.992;4.198;2023-04-03T00:35:51;4.35;;;1.90;;
38853;SDS011;24606;51.992;4.198;2023-04-03T00:40:54;5.30;;;2.25;;
38853;SDS011;24606;51.992;4.198;2023-04-03T00:45:57;3.50;;;2.00;;
38853;SDS011;24606;51.992;4.198;2023-04-03T00:51:00;3.10;;;1.95;;
38853;SDS011;24606;51.992;4.198;2023-04-03T00:56:06;3.15;;;1.90;;
38853;SDS011;24606;51.992;4.198;2023-04-03T01:01:12;2.30;;;1.52;;
38853;SDS011;24606;51.992;4.198;2023-04-03T01:06:17;4.15;;;2.63;;
38853;SDS011;24606;51.992;4.198;2023-04-03T01:11:23;4.45;;;2.15;;
38853;SDS011;24606;51.992;4.198;2023-04-03T01:16:26;3.22;;;1.77;;
38853;SDS011;24606;51.992;4.198;2023-04-03T01:21:49;3.55;;;1.98;;
38853;SDS011;24606;51.992;4.198;2023-04-03T01:27:10;3.80;;;1.95;;
38853;SDS011;24606;51.992;4.198;2023-04-03T01:32:13;4.13;;;2.20;;
38853;SDS011;24606;51.992;4.198;2023-04-03T01:37:15;4.38;;;2.15;;
38853;SDS011;24606;51.992;4.198;2023-04-03T01:42:17;2.78;;;1.75;;
38853;SDS011;24606;51.992;4.198;2023-04-03T01:47:20;5.28;;;1.65;;
38853;SDS011;24606;51.992;4.198;2023-04-03T01:52:23;3.83;;;1.92;;
38853;SDS011;24606;51.992;4.198;2023-04-03T01:57:25;3.95;;;1.70;;
38853;SDS011;24606;51.992;4.198;2023-04-03T02:02:28;2.22;;;1.58;;
38853;SDS011;24606;51.992;4.198;2023-04-03T02:07:30;2.70;;;1.30;;
38853;SDS011;24606;51.992;4.198;2023-04-03T02:12:32;2.40;;;1.30;;
38853;SDS011;24606;51.992;4.198;2023-04-03T02:17:35;2.13;;;1.17;;
38853;SDS011;24606;51.992;4.198;2023-04-03T02:22:37;2.42;;;1.33;;
38853;SDS011;24606;51.992;4.198;2023-04-03T02:27:40;3.17;;;2.05;;
38853;SDS011;24606;51.992;4.198;2023-04-03T02:32:44;1.70;;;1.30;;
38853;SDS011;24606;51.992;4.198;2023-04-03T02:37:46;2.35;;;1.40;;
38853;SDS011;24606;51.992;4.198;2023-04-03T02:42:48;3.35;;;1.58;;
38853;SDS011;24606;51.992;4.198;2023-04-03T02:47:51;2.38;;;1.33;;
38853;SDS011;24606;51.992;4.198;2023-04-03T02:52:53;2.33;;;1.40;;
38853;SDS011;24606;51.992;4.198;2023-04-03T02:57:55;2.63;;;1.55;;
38853;SDS011;24606;51.992;4.198;2023-04-03T03:02:58;2.25;;;1.10;;
38853;SDS011;24606;51.992;4.198;2023-04-03T03:08:00;2.33;;;1.17;;
38853;SDS011;24606;51.992;4.198;2023-04-03T03:13:02;2.95;;;0.90;;
38853;SDS011;24606;51.992;4.198;2023-04-03T03:18:05;1.02;;;0.90;;
38853;SDS011;24606;51.992;4.198;2023-04-03T03:23:07;2.35;;;1.13;;
38853;SDS011;24606;51.992;4.198;2023-04-03T03:28:09;1.55;;;0.95;;
38853;SDS011;24606;51.992;4.198;2023-04-03T03:33:12;1.38;;;1.20;;
38853;SDS011;24606;51.992;4.198;2023-04-03T03:38:14;2.83;;;1.10;;
38853;SDS011;24606;51.992;4.198;2023-04-03T03:43:16;1.77;;;0.90;;
38853;SDS011;24606;51.992;4.198;2023-04-03T03:48:20;1.67;;;0.93;;
38853;SDS011;24606;51.992;4.198;2023-04-03T03:53:22;0.95;;;0.60;;
38853;SDS011;24606;51.992;4.198;2023-04-03T03:58:24;2.10;;;1.23;;
38853;SDS011;24606;51.992;4.198;2023-04-03T04:03:27;1.73;;;0.67;;
38853;SDS011;24606;51.992;4.198;2023-04-03T04:08:30;1.88;;;1.20;;
38853;SDS011;24606;51.992;4.198;2023-04-03T04:13:32;1.20;;;0.80;;
38853;SDS011;24606;51.992;4.198;2023-04-03T04:18:35;1.15;;;0.75;;
38853;SDS011;24606;51.992;4.198;2023-04-03T04:23:37;0.75;;;0.47;;
38853;SDS011;24606;51.992;4.198;2023-04-03T04:28:39;0.90;;;0.60;;
38853;SDS011;24606;51.992;4.198;2023-04-03T04:33:42;1.70;;;0.90;;
38853;SDS011;24606;51.992;4.198;2023-04-03T04:38:44;1.17;;;0.70;;
38853;SDS011;24606;51.992;4.198;2023-04-03T04:43:45;0.85;;;0.68;;
38853;SDS011;24606;51.992;4.198;2023-04-03T04:48:49;1.98;;;0.70;;
38853;SDS011;24606;51.992;4.198;2023-04-03T04:53:51;1.73;;;0.70;;
38853;SDS011;24606;51.992;4.198;2023-04-03T04:58:52;0.63;;;0.43;;
38853;SDS011;24606;51.992;4.198;2023-04-03T05:03:56;1.17;;;0.52;;
38853;SDS011;24606;51.992;4.198;2023-04-03T05:08:57;0.30;;;0.30;;
38853;SDS011;24606;51.992;4.198;2023-04-03T05:13:59;0.70;;;0.40;;
38853;SDS011;24606;51.992;4.198;2023-04-03T05:19:03;1.08;;;0.60;;
38853;SDS011;24606;51.992;4.198;2023-04-03T05:24:05;0.63;;;0.55;;
38853;SDS011;24606;51.992;4.198;2023-04-03T05:29:09;0.95;;;0.52;;
38853;SDS011;24606;51.992;4.198;2023-04-03T05:34:12;3.10;;;1.33;;
38853;SDS011;24606;51.992;4.198;2023-04-03T05:39:14;0.60;;;0.60;;
38853;SDS011;24606;51.992;4.198;2023-04-03T05:44:16;0.68;;;0.50;;
38853;SDS011;24606;51.992;4.198;2023-04-03T05:49:19;0.65;;;0.55;;
38853;SDS011;24606;51.992;4.198;2023-04-03T05:54:22;1.05;;;0.57;;
38853;SDS011;24606;51.992;4.198;2023-04-03T05:59:26;1.98;;;0.70;;
38853;SDS011;24606;51.992;4.198;2023-04-03T06:15:28;1.15;;;0.75;;
38853;SDS011;24606;51.992;4.198;2023-04-03T06:20:30;1.00;;;0.70;;
38853;SDS011;24606;51.992;4.198;2023-04-03T06:25:32;2.10;;;0.60;;
38853;SDS011;24606;51.992;4.198;2023-04-03T06:30:35;1.73;;;0.40;;
38853;SDS011;24606;51.992;4.198;2023-04-03T06:35:37;2.45;;;0.90;;
38853;SDS011;24606;51.992;4.198;2023-04-03T06:40:39;1.73;;;1.05;;
38853;SDS011;24606;51.992;4.198;2023-04-03T06:45:43;3.72;;;0.70;;
38853;SDS011;24606;51.992;4.198;2023-04-03T06:50:45;2.30;;;0.90;;
38853;SDS011;24606;51.992;4.198;2023-04-03T06:55:46;1.75;;;1.10;;
38853;SDS011;24606;51.992;4.198;2023-04-03T07:00:50;3.83;;;1.63;;
38853;SDS011;24606;51.992;4.198;2023-04-03T07:05:51;5.43;;;3.03;;
38853;SDS011;24606;51.992;4.198;2023-04-03T07:10:53;4.95;;;2.67;;
38853;SDS011;24606;51.992;4.198;2023-04-03T07:15:58;7.75;;;3.60;;
38853;SDS011;24606;51.992;4.198;2023-04-03T07:21:00;6.47;;;3.20;;
38853;SDS011;24606;51.992;4.198;2023-04-03T07:26:02;3.58;;;1.10;;
38853;SDS011;24606;51.992;4.198;2023-04-03T07:31:07;1.02;;;0.50;;
38853;SDS011;24606;51.992;4.198;2023-04-03T07:36:14;9.45;;;3.25;;
38853;SDS011;24606;51.992;4.198;2023-04-03T07:41:18;12.07;;;4.78;;
38853;SDS011;24606;51.992;4.198;2023-04-03T07:46:23;8.82;;;4.40;;
38853;SDS011;24606;51.992;4.198;2023-04-03T07:51:26;4.28;;;2.40;;
38853;SDS011;24606;51.992;4.198;2023-04-03T07:56:29;6.57;;;4.32;;
38853;SDS011;24606;51.992;4.198;2023-04-03T08:01:33;3.75;;;1.95;;
38853;SDS011;24606;51.992;4.198;2023-04-03T08:06:35;3.78;;;2.00;;
38853;SDS011;24606;51.992;4.198;2023-04-03T08:11:38;7.30;;;3.95;;
38853;SDS011;24606;51.992;4.198;2023-04-03T08:16:41;8.82;;;3.95;;
38853;SDS011;24606;51.992;4.198;2023-04-03T08:21:44;4.45;;;2.50;;
38853;SDS011;24606;51.992;4.198;2023-04-03T08:26:46;5.57;;;3.38;;
38853;SDS011;24606;51.992;4.198;2023-04-03T08:31:50;4.15;;;2.10;;
38853;SDS011;24606;51.992;4.198;2023-04-03T08:36:52;7.97;;;3.88;;
38853;SDS011;24606;51.992;4.198;2023-04-03T08:41:54;7.45;;;3.72;;
38853;SDS011;24606;51.992;4.198;2023-04-03T08:47:04;3.72;;;2.15;;
38853;SDS011;24606;51.992;4.198;2023-04-03T08:52:19;5.13;;;2.05;;
38853;SDS011;24606;51.992;4.198;2023-04-03T08:57:26;4.32;;;2.03;;
38853;SDS011;24606;51.992;4.198;2023-04-03T09:02:34;3.28;;;1.60;;
38853;SDS011;24606;51.992;4.198;2023-04-03T09:07:43;3.58;;;1.80;;
38853;SDS011;24606;51.992;4.198;2023-04-03T09:12:49;7.05;;;2.72;;
38853;SDS011;24606;51.992;4.198;2023-04-03T09:17:59;2.90;;;2.03;;
38853;SDS011;24606;51.992;4.198;2023-04-03T09:23:09;3.67;;;1.98;;
38853;SDS011;24606;51.992;4.198;2023-04-03T09:28:18;3.42;;;2.13;;
38853;SDS011;24606;51.992;4.198;2023-04-03T09:38:23;2.65;;;1.52;;
38853;SDS011;24606;51.992;4.198;2023-04-03T09:43:27;2.63;;;1.08;;
38853;SDS011;24606;51.992;4.198;2023-04-03T09:48:31;1.92;;;0.90;;
38853;SDS011;24606;51.992;4.198;2023-04-03T09:53:35;3.38;;;1.50;;
38853;SDS011;24606;51.992;4.198;2023-04-03T09:58:38;2.08;;;1.25;;
38853;SDS011;24606;51.992;4.198;2023-04-03T10:03:43;3.65;;;1.45;;
38853;SDS011;24606;51.992;4.198;2023-04-03T10:08:48;2.50;;;0.80;;
38853;SDS011;24606;51.992;4.198;2023-04-03T10:14:01;3.55;;;1.27;;
38853;SDS011;24606;51.992;4.198;2023-04-03T10:19:11;3.67;;;1.40;;
38853;SDS011;24606;51.992;4.198;2023-04-03T10:24:23;3.05;;;1.50;;
38853;SDS011;24606;51.992;4.198;2023-04-03T10:29:40;4.05;;;1.80;;
38853;SDS011;24606;51.992;4.198;2023-04-03T10:34:49;3.75;;;0.95;;
38853;SDS011;24606;51.992;4.198;2023-04-03T10:39:56;1.63;;;0.70;;
38853;SDS011;24606;51.992;4.198;2023-04-03T10:45:08;2.60;;;0.90;;
38853;SDS011;24606;51.992;4.198;2023-04-03T10:50:31;1.45;;;0.73;;
38853;SDS011;24606;51.992;4.198;2023-04-03T10:55:42;2.38;;;0.50;;
38853;SDS011;24606;51.992;4.198;2023-04-03T11:00:48;2.58;;;0.70;;
38853;SDS011;24606;51.992;4.198;2023-04-03T11:05:54;1.65;;;0.65;;
38853;SDS011;24606;51.992;4.198;2023-04-03T11:10:57;1.30;;;0.90;;
38853;SDS011;24606;51.992;4.198;2023-04-03T11:16:02;1.38;;;0.90;;
38853;SDS011;24606;51.992;4.198;2023-04-03T11:21:10;0.93;;;0.65;;
38853;SDS011;24606;51.992;4.198;2023-04-03T11:26:18;1.48;;;0.90;;
38853;SDS011;24606;51.992;4.198;2023-04-03T11:31:26;3.10;;;0.88;;
38853;SDS011;24606;51.992;4.198;2023-04-03T11:36:39;2.10;;;1.23;;
38853;SDS011;24606;51.992;4.198;2023-04-03T11:41:46;1.65;;;0.88;;
38853;SDS011;24606;51.992;4.198;2023-04-03T11:46:49;2.80;;;0.90;;
38853;SDS011;24606;51.992;4.198;2023-04-03T11:51:54;3.30;;;1.23;;
38853;SDS011;24606;51.992;4.198;2023-04-03T11:56:57;2.13;;;0.70;;
38853;SDS011;24606;51.992;4.198;2023-04-03T12:01:59;3.08;;;1.25;;
38853;SDS011;24606;51.992;4.198;2023-04-03T12:17:41;1.15;;;0.70;;
38853;SDS011;24606;51.992;4.198;2023-04-03T12:28:09;1.95;;;0.85;;
38853;SDS011;24606;51.992;4.198;2023-04-03T12:33:16;1.20;;;0.98;;
38853;SDS011;24606;51.992;4.198;2023-04-03T12:38:32;1.85;;;0.93;;
38853;SDS011;24606;51.992;4.198;2023-04-03T12:43:43;1.77;;;0.95;;
38853;SDS011;24606;51.992;4.198;2023-04-03T12:48:57;1.27;;;0.60;;
38853;SDS011;24606;51.992;4.198;2023-04-03T12:54:02;1.25;;;0.93;;
38853;SDS011;24606;51.992;4.198;2023-04-03T12:59:15;8.63;;;3.20;;
38853;SDS011;24606;51.992;4.198;2023-04-03T13:04:19;21.75;;;6.93;;
38853;SDS011;24606;51.992;4.198;2023-04-03T13:09:23;27.02;;;8.07;;
38853;SDS011;24606;51.992;4.198;2023-04-03T13:14:28;28.67;;;8.35;;
38853;SDS011;24606;51.992;4.198;2023-04-03T13:19:31;29.00;;;7.97;;
38853;SDS011;24606;51.992;4.198;2023-04-03T13:24:34;22.52;;;7.10;;
38853;SDS011;24606;51.992;4.198;2023-04-03T13:29:39;21.27;;;7.38;;
38853;SDS011;24606;51.992;4.198;2023-04-03T13:34:42;17.27;;;6.10;;
38853;SDS011;24606;51.992;4.198;2023-04-03T13:39:55;14.68;;;4.95;;
38853;SDS011;24606;51.992;4.198;2023-04-03T13:45:08;15.10;;;5.10;;
38853;SDS011;24606;51.992;4.198;2023-04-03T13:50:20;13.70;;;4.45;;
38853;SDS011;24606;51.992;4.198;2023-04-03T13:55:28;12.02;;;4.20;;
38853;SDS011;24606;51.992;4.198;2023-04-03T14:00:34;10.23;;;4.47;;
38853;SDS011;24606;51.992;4.198;2023-04-03T14:05:38;4.85;;;2.55;;
38853;SDS011;24606;51.992;4.198;2023-04-03T14:10:42;3.08;;;1.13;;
38853;SDS011;24606;51.992;4.198;2023-04-03T14:15:45;7.85;;;2.38;;
38853;SDS011;24606;51.992;4.198;2023-04-03T14:20:48;6.13;;;1.67;;
38853;SDS011;24606;51.992;4.198;2023-04-03T14:25:52;6.82;;;2.42;;
38853;SDS011;24606;51.992;4.198;2023-04-03T14:30:54;6.57;;;2.47;;
38853;SDS011;24606;51.992;4.198;2023-04-03T14:35:56;8.50;;;2.60;;
38853;SDS011;24606;51.992;4.198;2023-04-03T14:41:00;4.93;;;1.98;;
38853;SDS011;24606;51.992;4.198;2023-04-03T14:46:02;7.00;;;2.58;;
38853;SDS011;24606;51.992;4.198;2023-04-03T14:51:04;4.53;;;1.90;;
38853;SDS011;24606;51.992;4.198;2023-04-03T14:56:11;5.97;;;1.77;;
38853;SDS011;24606;51.992;4.198;2023-04-03T15:01:15;6.13;;;1.42;;
38853;SDS011;24606;51.992;4.198;2023-04-03T15:06:18;6.55;;;1.38;;
38853;SDS011;24606;51.992;4.198;2023-04-03T15:11:21;3.97;;;1.60;;
38853;SDS011;24606;51.992;4.198;2023-04-03T15:16:23;4.38;;;1.33;;
38853;SDS011;24606;51.992;4.198;2023-04-03T15:21:25;5.25;;;1.90;;
38853;SDS011;24606;51.992;4.198;2023-04-03T15:26:29;4.60;;;1.88;;
38853;SDS011;24606;51.992;4.198;2023-04-03T15:31:31;4.00;;;1.63;;
38853;SDS011;24606;51.992;4.198;2023-04-03T15:36:33;5.63;;;1.67;;
38853;SDS011;24606;51.992;4.198;2023-04-03T15:41:37;4.78;;;1.73;;
38853;SDS011;24606;51.992;4.198;2023-04-03T15:46:38;5.47;;;2.17;;
38853;SDS011;24606;51.992;4.198;2023-04-03T15:51:41;7.20;;;1.60;;
38853;SDS011;24606;51.992;4.198;2023-04-03T15:56:44;5.03;;;1.67;;
38853;SDS011;24606;51.992;4.198;2023-04-03T16:01:46;5.60;;;2.15;;
38853;SDS011;24606;51.992;4.198;2023-04-03T16:06:49;6.15;;;2.28;;
38853;SDS011;24606;51.992;4.198;2023-04-03T16:11:53;3.70;;;2.25;;
38853;SDS011;24606;51.992;4.198;2023-04-03T16:16:56;5.70;;;2.13;;
38853;SDS011;24606;51.992;4.198;2023-04-03T16:21:59;2.33;;;1.60;;
38853;SDS011;24606;51.992;4.198;2023-04-03T16:32:04;6.95;;;1.90;;
38853;SDS011;24606;51.992;4.198;2023-04-03T16:42:10;3.03;;;1.75;;
38853;SDS011;24606;51.992;4.198;2023-04-03T16:47:12;7.57;;;3.63;;
38853;SDS011;24606;51.992;4.198;2023-04-03T16:52:14;9.75;;;2.90;;
38853;SDS011;24606;51.992;4.198;2023-04-03T16:57:17;5.88;;;2.65;;
38853;SDS011;24606;51.992;4.198;2023-04-03T17:02:20;10.95;;;3.47;;
38853;SDS011;24606;51.992;4.198;2023-04-03T17:07:24;7.82;;;2.78;;
38853;SDS011;24606;51.992;4.198;2023-04-03T17:12:28;7.40;;;2.63;;
38853;SDS011;24606;51.992;4.198;2023-04-03T17:17:30;7.93;;;2.60;;
38853;SDS011;24606;51.992;4.198;2023-04-03T17:22:32;6.07;;;1.98;;
38853;SDS011;24606;51.992;4.198;2023-04-03T17:27:36;3.60;;;1.73;;
38853;SDS011;24606;51.992;4.198;2023-04-03T17:32:38;9.65;;;2.33;;
38853;SDS011;24606;51.992;4.198;2023-04-03T17:42:43;4.03;;;1.73;;
38853;SDS011;24606;51.992;4.198;2023-04-03T17:47:44;4.50;;;1.35;;
38853;SDS011;24606;51.992;4.198;2023-04-03T17:57:50;4.53;;;1.48;;
38853;SDS011;24606;51.992;4.198;2023-04-03T18:02:52;2.67;;;1.30;;
38853;SDS011;24606;51.992;4.198;2023-04-03T18:07:54;3.28;;;1.50;;
38853;SDS011;24606;51.992;4.198;2023-04-03T18:12:59;6.47;;;2.03;;
38853;SDS011;24606;51.992;4.198;2023-04-03T18:18:01;4.13;;;1.40;;
38853;SDS011;24606;51.992;4.198;2023-04-03T18:23:03;4.55;;;1.27;;
38853;SDS011;24606;51.992;4.198;2023-04-03T18:28:06;5.63;;;2.00;;
38853;SDS011;24606;51.992;4.198;2023-04-03T18:33:08;5.10;;;1.40;;
38853;SDS011;24606;51.992;4.198;2023-04-03T18:38:10;6.40;;;0.93;;
38853;SDS011;24606;51.992;4.198;2023-04-03T18:43:14;4.40;;;1.42;;
38853;SDS011;24606;51.992;4.198;2023-04-03T18:48:16;4.47;;;1.25;;
38853;SDS011;24606;51.992;4.198;2023-04-03T18:53:20;6.97;;;2.00;;
38853;SDS011;24606;51.992;4.198;2023-04-03T18:58:24;5.95;;;1.52;;
38853;SDS011;24606;51.992;4.198;2023-04-03T19:03:26;4.65;;;1.20;;
38853;SDS011;24606;51.992;4.198;2023-04-03T19:08:28;7.53;;;1.63;;
38853;SDS011;24606;51.992;4.198;2023-04-03T19:13:32;3.10;;;1.42;;
38853;SDS011;24606;51.992;4.198;2023-04-03T19:18:34;8.23;;;2.47;;
38853;SDS011;24606;51.992;4.198;2023-04-03T19:28:39;9.53;;;2.47;;
38853;SDS011;24606;51.992;4.198;2023-04-03T19:33:41;4.25;;;1.55;;
38853;SDS011;24606;51.992;4.198;2023-04-03T19:38:43;4.38;;;1.85;;
38853;SDS011;24606;51.992;4.198;2023-04-03T19:43:47;3.85;;;1.67;;
38853;SDS011;24606;51.992;4.198;2023-04-03T19:48:50;7.10;;;2.58;;
38853;SDS011;24606;51.992;4.198;2023-04-03T19:58:55;10.95;;;3.90;;
38853;SDS011;24606;51.992;4.198;2023-04-03T20:03:57;9.32;;;4.40;;
38853;SDS011;24606;51.992;4.198;2023-04-03T20:08:59;13.02;;;5.93;;
38853;SDS011;24606;51.992;4.198;2023-04-03T20:19:04;10.45;;;4.68;;
38853;SDS011;24606;51.992;4.198;2023-04-03T20:24:06;15.18;;;6.25;;
38853;SDS011;24606;51.992;4.198;2023-04-03T20:29:10;10.18;;;5.03;;
38853;SDS011;24606;51.992;4.198;2023-04-03T20:34:13;15.27;;;5.72;;
38853;SDS011;24606;51.992;4.198;2023-04-03T20:39:15;12.75;;;6.68;;
38853;SDS011;24606;51.992;4.198;2023-04-03T20:44:19;17.02;;;7.90;;
38853;SDS011;24606;51.992;4.198;2023-04-03T20:49:22;12.10;;;6.15;;
38853;SDS011;24606;51.992;4.198;2023-04-03T20:54:24;12.02;;;6.47;;
38853;SDS011;24606;51.992;4.198;2023-04-03T20:59:27;18.10;;;8.63;;
38853;SDS011;24606;51.992;4.198;2023-04-03T21:04:32;20.02;;;9.70;;
38853;SDS011;24606;51.992;4.198;2023-04-03T21:20:48;21.10;;;10.45;;
38853;SDS011;24606;51.992;4.198;2023-04-03T21:25:50;10.95;;;5.90;;
38853;SDS011;24606;51.992;4.198;2023-04-03T21:30:52;9.13;;;5.20;;
38853;SDS011;24606;51.992;4.198;2023-04-03T21:35:55;9.00;;;4.63;;
38853;SDS011;24606;51.992;4.198;2023-04-03T21:40:59;10.18;;;5.00;;
38853;SDS011;24606;51.992;4.198;2023-04-03T21:51:05;8.90;;;3.78;;
38853;SDS011;24606;51.992;4.198;2023-04-03T21:56:07;9.70;;;4.65;;
38853;SDS011;24606;51.992;4.198;2023-04-03T22:01:10;11.82;;;5.28;;
38853;SDS011;24606;51.992;4.198;2023-04-03T22:06:15;11.15;;;4.93;;
38853;SDS011;24606;51.992;4.198;2023-04-03T22:11:17;11.23;;;5.32;;
38853;SDS011;24606;51.992;4.198;2023-04-03T22:16:21;10.32;;;5.10;;
38853;SDS011;24606;51.992;4.198;2023-04-03T22:26:26;11.98;;;5.63;;
38853;SDS011;24606;51.992;4.198;2023-04-03T22:31:28;9.68;;;3.92;;
38853;SDS011;24606;51.992;4.198;2023-04-03T22:36:31;9.60;;;4.90;;
38853;SDS011;24606;51.992;4.198;2023-04-03T22:41:33;8.98;;;4.63;;
38853;SDS011;24606;51.992;4.198;2023-04-03T22:46:36;5.78;;;3.25;;
38853;SDS011;24606;51.992;4.198;2023-04-03T22:51:39;7.95;;;4.05;;
38853;SDS011;24606;51.992;4.198;2023-04-03T22:56:41;9.02;;;5.20;;
38853;SDS011;24606;51.992;4.198;2023-04-03T23:01:42;8.90;;;3.88;;
38853;SDS011;24606;51.992;4.198;2023-04-03T23:06:46;9.90;;;5.63;;
38853;SDS011;24606;51.992;4.198;2023-04-03T23:11:48;10.07;;;4.35;;
38853;SDS011;24606;51.992;4.198;2023-04-03T23:16:50;11.20;;;5.20;;
38853;SDS011;24606;51.992;4.198;2023-04-03T23:21:53;8.27;;;4.55;;
38853;SDS011;24606;51.992;4.198;2023-04-03T23:26:55;6.40;;;3.53;;
38853;SDS011;24606;51.992;4.198;2023-04-03T23:31:57;5.80;;;3.60;;
38853;SDS011;24606;51.992;4.198;2023-04-03T23:37:00;6.75;;;4.05;;
38853;SDS011;24606;51.992;4.198;2023-04-03T23:42:03;6.40;;;4.07;;
38853;SDS011;24606;51.992;4.198;2023-04-03T23:47:08;9.57;;;3.45;;
38853;SDS011;24606;51.992;4.198;2023-04-03T23:52:11;5.88;;;3.60;;
38853;SDS011;24606;51.992;4.198;2023-04-03T23:57:13;6.63;;;3.53;;
